Shoup, Idaho
Current Conditions -  °F | °C
As of 7:55 PM on Wednesday 22 Oct 2014 (Local Time) from KLLJ Reporting Station
Overcast Overcast  
Wind Chill: 51°   Ceiling: 7500
Heat Index: 51°   Visibility: 10mi
Dew Point: 30°   Wind: 3mph
Humidity: 44%   Direction: 190°S
Pressure: 30.07"   Gusts: NA
Location:  45.38°N, 114.28°W
Report Text: KLLJ 230155Z AUTO 19003KT 10SM OVC075 11/M01 A3007 RMK AO2 SLP178 T01061011
Loading
Personal Weather Stations






























Interactive Weather Map
Tropical Storm Tracking
New forecast layout! Learn more

10-Day Weather Forecast

Advertisements
Track Severe Weather on mobile